createdAt,value
2023-03-05T00:00:49.269Z,12.60
2023-03-05T00:03:15.840Z,12.20
2023-03-05T00:05:42.356Z,11.50
2023-03-05T00:08:08.922Z,12.27
2023-03-05T00:10:35.463Z,11.80
2023-03-05T00:13:02.001Z,11.67
2023-03-05T00:15:28.489Z,11.50
2023-03-05T00:17:55.001Z,12.00
2023-03-05T00:20:21.546Z,11.47
2023-03-05T00:22:48.068Z,15.13
2023-03-05T00:25:14.587Z,17.80
2023-03-05T00:27:41.222Z,15.63
2023-03-05T00:30:08.676Z,15.13
2023-03-05T00:32:36.395Z,15.03
2023-03-05T00:35:03.131Z,15.27
2023-03-05T00:37:29.632Z,14.60
2023-03-05T00:39:57.352Z,12.73
2023-03-05T00:42:23.832Z,12.73
2023-03-05T00:44:50.389Z,12.13
2023-03-05T00:47:18.392Z,12.30
2023-03-05T00:49:45.124Z,12.80
2023-03-05T00:52:11.648Z,12.10
2023-03-05T00:54:38.232Z,11.90
2023-03-05T00:57:05.796Z,11.40
2023-03-05T00:59:32.560Z,12.17
2023-03-05T01:01:59.166Z,12.27
2023-03-05T01:04:25.747Z,11.00
2023-03-05T01:06:52.294Z,12.30
2023-03-05T01:09:19.075Z,12.70
2023-03-05T01:11:45.579Z,11.93
2023-03-05T01:14:12.291Z,11.47
2023-03-05T01:16:38.885Z,12.30
2023-03-05T01:19:05.416Z,12.60
2023-03-05T01:21:32.414Z,12.93
2023-03-05T01:23:59.173Z,12.13
2023-03-05T01:26:25.751Z,12.70
2023-03-05T01:28:52.270Z,12.13
2023-03-05T01:31:19.311Z,11.73
2023-03-05T01:33:46.037Z,12.60
2023-03-05T01:36:15.911Z,13.30
2023-03-05T01:38:43.843Z,13.47
2023-03-05T01:41:11.510Z,13.20
2023-03-05T01:43:38.704Z,12.63
2023-03-05T01:46:28.569Z,13.17
2023-03-05T01:49:04.294Z,11.87
2023-03-05T01:51:36.848Z,12.70
2023-03-05T01:54:06.336Z,12.33
2023-03-05T01:56:33.043Z,12.20
2023-03-05T01:59:03.644Z,11.67
2023-03-05T02:01:51.832Z,11.80
2023-03-05T02:04:22.254Z,11.93
2023-03-05T02:06:49.785Z,13.90
2023-03-05T02:09:16.803Z,13.47
2023-03-05T02:11:43.741Z,12.90
2023-03-05T02:14:10.553Z,12.93
2023-03-05T02:16:38.419Z,13.60
2023-03-05T02:19:11.000Z,13.80
2023-03-05T02:21:44.037Z,13.03
2023-03-05T02:24:16.045Z,13.27
2023-03-05T02:26:44.868Z,12.90
2023-03-05T02:29:15.870Z,12.63
2023-03-05T02:31:43.197Z,12.80
2023-03-05T02:34:09.785Z,12.87
2023-03-05T02:36:36.288Z,12.77
2023-03-05T02:39:03.677Z,13.77
2023-03-05T02:41:30.332Z,13.17
2023-03-05T02:43:58.561Z,12.53
2023-03-05T02:46:25.549Z,12.07
2023-03-05T02:48:52.295Z,11.50
2023-03-05T02:51:18.969Z,12.33
2023-03-05T02:53:46.627Z,12.27
2023-03-05T02:56:14.005Z,11.13
2023-03-05T02:58:40.556Z,10.43
2023-03-05T03:01:08.747Z,10.63
2023-03-05T03:03:35.533Z,10.40
2023-03-05T03:06:02.281Z,10.53
2023-03-05T03:08:28.843Z,10.33
2023-03-05T03:10:56.506Z,10.77
2023-03-05T03:13:26.010Z,10.43
2023-03-05T03:16:02.400Z,9.77
2023-03-05T03:18:28.916Z,10.57
2023-03-05T03:20:55.436Z,10.17
2023-03-05T03:23:21.941Z,10.70
2023-03-05T03:25:48.459Z,10.30
2023-03-05T03:28:14.944Z,10.10
2023-03-05T03:30:41.573Z,11.17
2023-03-05T03:33:08.142Z,11.33
2023-03-05T03:35:34.756Z,10.90
2023-03-05T03:38:01.248Z,11.00
2023-03-05T03:40:27.793Z,10.50
2023-03-05T03:42:54.753Z,11.40
2023-03-05T03:45:24.195Z,12.53
2023-03-05T03:47:51.960Z,11.60
2023-03-05T03:50:18.891Z,12.47
2023-03-05T03:52:45.415Z,12.90
2023-03-05T03:55:11.890Z,13.70
2023-03-05T03:57:38.551Z,14.53
2023-03-05T04:00:10.951Z,13.67
2023-03-05T04:02:41.573Z,14.17
2023-03-05T04:05:08.869Z,14.37
2023-03-05T04:07:35.382Z,15.50
2023-03-05T04:10:02.035Z,14.93
2023-03-05T04:12:28.500Z,14.83
2023-03-05T04:14:55.129Z,15.13
2023-03-05T04:17:21.698Z,14.93
2023-03-05T04:19:48.218Z,13.80
2023-03-05T04:22:17.237Z,13.47
2023-03-05T04:24:44.337Z,12.97
2023-03-05T04:27:11.866Z,13.93
2023-03-05T04:29:38.633Z,13.13
2023-03-05T04:32:06.382Z,13.70
2023-03-05T04:34:33.429Z,13.83
2023-03-05T04:37:00.043Z,14.80
2023-03-05T04:39:26.718Z,15.13
2023-03-05T04:41:53.260Z,15.47
2023-03-05T04:44:19.783Z,15.00
2023-03-05T04:46:46.334Z,14.70
2023-03-05T04:49:13.115Z,14.50
2023-03-05T04:51:39.661Z,15.57
2023-03-05T04:54:06.222Z,14.07
2023-03-05T04:56:32.812Z,14.60
2023-03-05T04:58:59.988Z,13.63
2023-03-05T05:01:26.754Z,13.73
2023-03-05T05:03:53.276Z,13.00
2023-03-05T05:06:19.839Z,12.63
2023-03-05T05:08:46.321Z,12.73
2023-03-05T05:11:14.372Z,12.20
2023-03-05T05:13:40.905Z,13.07
2023-03-05T05:16:08.565Z,13.13
2023-03-05T05:18:35.617Z,13.80
2023-03-05T05:21:02.147Z,12.43
2023-03-05T05:23:28.724Z,12.43
2023-03-05T05:26:02.856Z,13.13
2023-03-05T05:28:29.897Z,12.77
2023-03-05T05:30:56.421Z,13.37
2023-03-05T05:33:23.690Z,13.30
2023-03-05T05:35:50.789Z,13.43
2023-03-05T05:38:17.767Z,12.63
2023-03-05T05:40:44.480Z,13.03
2023-03-05T05:43:10.989Z,12.90
2023-03-05T05:45:38.601Z,10.67
2023-03-05T05:48:05.171Z,9.90
2023-03-05T05:50:31.775Z,9.77
2023-03-05T05:52:58.270Z,9.40
2023-03-05T05:55:24.917Z,8.13
2023-03-05T05:57:51.392Z,6.77
2023-03-05T06:00:18.289Z,6.40
2023-03-05T06:02:44.864Z,6.23
2023-03-05T06:05:14.766Z,6.40
2023-03-05T06:07:41.540Z,6.20
2023-03-05T06:10:09.922Z,5.80
2023-03-05T06:12:36.420Z,5.40
2023-03-05T06:15:02.968Z,5.83
2023-03-05T06:17:31.016Z,5.60
2023-03-05T06:19:58.725Z,5.47
2023-03-05T06:22:25.589Z,5.27
2023-03-05T06:24:52.307Z,5.70
2023-03-05T06:27:18.909Z,5.33
2023-03-05T06:29:45.537Z,6.00
2023-03-05T06:32:12.162Z,4.87
2023-03-05T06:34:38.776Z,5.53
2023-03-05T06:37:05.350Z,5.70
2023-03-05T06:39:31.869Z,5.30
2023-03-05T06:41:58.421Z,5.30
2023-03-05T06:44:25.689Z,4.50
2023-03-05T06:46:52.296Z,5.13
2023-03-05T06:49:18.918Z,5.00
2023-03-05T06:51:45.470Z,4.73
2023-03-05T06:54:15.004Z,4.80
2023-03-05T06:56:44.218Z,6.30
2023-03-05T06:59:11.910Z,5.30
2023-03-05T07:01:38.739Z,5.40
2023-03-05T07:04:06.777Z,5.27
2023-03-05T07:06:36.274Z,5.57
2023-03-05T07:09:04.198Z,5.67
2023-03-05T07:11:31.140Z,5.30
2023-03-05T07:13:57.882Z,5.40
2023-03-05T07:16:27.305Z,5.67
2023-03-05T07:18:54.760Z,5.50
2023-03-05T07:21:23.963Z,5.20
2023-03-05T07:23:52.936Z,5.23
2023-03-05T07:26:20.190Z,4.90
2023-03-05T07:28:47.142Z,5.30
2023-03-05T07:31:21.192Z,4.67
2023-03-05T07:33:50.984Z,4.87
2023-03-05T07:36:17.555Z,5.43
2023-03-05T07:38:44.448Z,5.20
2023-03-05T07:41:13.707Z,5.23
2023-03-05T07:43:40.405Z,5.00
2023-03-05T07:46:08.956Z,5.17
2023-03-05T07:48:35.682Z,5.43
2023-03-05T07:51:03.583Z,6.73
2023-03-05T07:53:30.467Z,6.77
2023-03-05T07:55:57.057Z,5.40
2023-03-05T07:58:23.566Z,5.33
2023-03-05T08:00:50.089Z,5.73
2023-03-05T08:03:16.697Z,5.07
2023-03-05T08:05:43.511Z,4.90
2023-03-05T08:08:10.181Z,4.83
2023-03-05T08:10:37.819Z,10.50
2023-03-05T08:13:04.706Z,4.83
2023-03-05T08:15:34.144Z,5.00
2023-03-05T08:18:01.567Z,4.63
2023-03-05T08:20:28.094Z,4.30
2023-03-05T08:22:54.579Z,4.87
2023-03-05T08:25:21.565Z,4.00
2023-03-05T08:27:48.714Z,3.73
2023-03-05T08:30:19.247Z,3.60
2023-03-05T08:32:45.890Z,3.43
2023-03-05T08:35:12.490Z,3.47
2023-03-05T08:37:39.098Z,3.47
2023-03-05T08:40:06.516Z,2.93
2023-03-05T08:42:33.108Z,3.10
2023-03-05T08:44:59.742Z,3.47
2023-03-05T08:47:27.321Z,3.27
2023-03-05T08:49:55.635Z,3.03
2023-03-05T08:52:23.210Z,3.20
2023-03-05T08:54:49.973Z,2.80
2023-03-05T08:57:16.732Z,2.57
2023-03-05T08:59:43.274Z,2.50
2023-03-05T09:02:13.756Z,2.83
2023-03-05T09:04:40.707Z,2.93
2023-03-05T09:07:07.752Z,2.30
2023-03-05T09:09:34.301Z,2.70
2023-03-05T09:12:01.276Z,2.50
2023-03-05T09:14:28.653Z,2.57
2023-03-05T09:16:56.682Z,2.63
2023-03-05T09:19:23.476Z,2.50
2023-03-05T09:21:50.124Z,2.93
2023-03-05T09:24:16.646Z,2.70
2023-03-05T09:26:44.122Z,2.50
2023-03-05T09:29:10.839Z,2.70
2023-03-05T09:31:37.844Z,2.97
2023-03-05T09:34:05.986Z,2.83
2023-03-05T09:36:33.290Z,2.67
2023-03-05T09:39:00.003Z,2.37
2023-03-05T09:41:30.216Z,2.37
2023-03-05T09:44:23.554Z,2.90
2023-03-05T09:47:11.601Z,2.77
2023-03-05T09:49:58.114Z,2.57
2023-03-05T09:52:34.650Z,2.70
2023-03-05T09:55:02.565Z,2.40
2023-03-05T09:57:45.712Z,2.30
2023-03-05T10:00:27.171Z,2.30
2023-03-05T10:02:59.592Z,2.00
2023-03-05T10:06:12.364Z,2.00
2023-03-05T10:08:46.812Z,2.23
2023-03-05T10:11:31.286Z,1.93
2023-03-05T10:13:57.789Z,2.10
2023-03-05T10:16:51.231Z,2.37
2023-03-05T10:19:44.806Z,2.33
2023-03-05T10:22:28.471Z,2.47
2023-03-05T10:25:17.158Z,2.40
2023-03-05T10:27:59.426Z,2.30
2023-03-05T10:30:39.268Z,2.37
2023-03-05T10:33:20.164Z,1.70
2023-03-05T10:36:04.282Z,2.03
2023-03-05T10:38:39.665Z,2.30
2023-03-05T10:41:22.656Z,2.43
2023-03-05T10:43:55.406Z,2.10
2023-03-05T10:46:29.079Z,2.50
2023-03-05T10:49:01.321Z,2.13
2023-03-05T10:51:39.321Z,2.40
2023-03-05T10:54:25.256Z,2.33
2023-03-05T10:57:20.905Z,2.70
2023-03-05T10:59:53.701Z,2.37
2023-03-05T11:02:21.977Z,2.07
2023-03-05T11:04:49.971Z,2.50
2023-03-05T11:07:16.361Z,2.40
2023-03-05T11:09:43.949Z,2.50
2023-03-05T11:12:20.025Z,2.20
2023-03-05T11:15:07.183Z,2.10
2023-03-05T11:17:38.762Z,2.30
2023-03-05T11:20:28.894Z,2.37
2023-03-05T11:23:10.777Z,2.40
2023-03-05T11:26:18.804Z,2.03
2023-03-05T11:28:48.309Z,2.33
2023-03-05T11:31:18.264Z,2.70
2023-03-05T11:34:04.047Z,2.90
2023-03-05T11:36:38.931Z,2.50
2023-03-05T11:39:10.632Z,2.63
2023-03-05T11:41:42.211Z,2.37
2023-03-05T11:44:43.455Z,2.50
2023-03-05T11:47:35.886Z,3.00
2023-03-05T11:50:16.982Z,2.20
2023-03-05T11:52:57.262Z,2.77
2023-03-05T11:55:32.564Z,2.57
2023-03-05T11:58:24.573Z,2.77
2023-03-05T12:00:51.153Z,2.50
2023-03-05T12:03:22.547Z,2.60
2023-03-05T12:05:54.086Z,3.63
2023-03-05T12:08:31.951Z,2.43
2023-03-05T12:11:03.880Z,3.00
2023-03-05T12:13:42.500Z,4.70
2023-03-05T12:16:24.260Z,3.00
2023-03-05T12:19:23.910Z,3.27
2023-03-05T12:21:52.581Z,3.97
2023-03-05T12:24:27.874Z,3.60
2023-03-05T12:27:02.044Z,3.50
2023-03-05T12:29:33.322Z,3.47
2023-03-05T12:32:01.309Z,3.17
2023-03-05T12:34:40.485Z,3.67
2023-03-05T12:37:12.574Z,3.63
2023-03-05T12:39:45.492Z,4.43
2023-03-05T12:42:30.371Z,3.23
2023-03-05T12:45:12.347Z,3.87
2023-03-05T12:47:40.599Z,3.97
2023-03-05T12:50:29.008Z,4.07
2023-03-05T12:52:59.650Z,3.80
2023-03-05T12:55:35.988Z,4.33
2023-03-05T12:58:14.000Z,4.00
2023-03-05T13:00:53.445Z,3.57
2023-03-05T13:03:27.137Z,3.60
2023-03-05T13:05:56.618Z,3.97
2023-03-05T13:08:31.570Z,4.20
2023-03-05T13:11:02.012Z,3.70
2023-03-05T13:13:31.065Z,3.73
2023-03-05T13:15:57.744Z,3.83
2023-03-05T13:18:27.469Z,3.67
2023-03-05T13:21:17.080Z,3.57
2023-03-05T13:23:57.857Z,4.00
2023-03-05T13:26:37.427Z,4.13
2023-03-05T13:29:14.911Z,3.70
2023-03-05T13:31:46.447Z,3.87
2023-03-05T13:34:46.783Z,3.70
2023-03-05T13:37:23.814Z,3.87
2023-03-05T13:39:55.196Z,3.83
2023-03-05T13:42:28.441Z,4.10
2023-03-05T13:44:59.691Z,3.47
2023-03-05T13:47:31.982Z,3.47
2023-03-05T13:50:00.436Z,3.20
2023-03-05T13:52:30.845Z,3.80
2023-03-05T13:55:01.677Z,3.60
2023-03-05T13:57:40.728Z,3.53
2023-03-05T14:00:24.955Z,3.60
2023-03-05T14:02:53.077Z,3.50
2023-03-05T14:05:19.951Z,3.70
2023-03-05T14:07:51.178Z,3.73
2023-03-05T14:10:37.626Z,3.23
2023-03-05T14:13:26.969Z,3.73
2023-03-05T14:16:05.244Z,3.47
2023-03-05T14:18:31.785Z,3.20
2023-03-05T14:21:00.136Z,3.30
2023-03-05T14:23:37.332Z,3.50
2023-03-05T14:26:28.626Z,3.10
2023-03-05T14:28:55.548Z,3.50
2023-03-05T14:31:23.322Z,3.70
2023-03-05T14:33:51.030Z,3.47
2023-03-05T14:36:24.021Z,4.03
2023-03-05T14:38:52.262Z,3.33
2023-03-05T14:41:40.059Z,3.97
2023-03-05T14:44:15.096Z,3.47
2023-03-05T14:46:42.655Z,2.70
2023-03-05T14:49:09.744Z,2.60
2023-03-05T14:51:41.264Z,2.37
2023-03-05T14:54:18.789Z,2.43
2023-03-05T14:56:45.264Z,2.53
2023-03-05T14:59:11.788Z,2.20
2023-03-05T15:01:38.396Z,2.43
2023-03-05T15:04:04.945Z,2.47
2023-03-05T15:06:34.223Z,2.40
2023-03-05T15:09:02.064Z,2.23
2023-03-05T15:11:28.595Z,2.60
2023-03-05T15:13:55.153Z,2.30
2023-03-05T15:16:22.020Z,2.27
2023-03-05T15:18:48.814Z,2.57
2023-03-05T15:21:15.640Z,2.37
2023-03-05T15:23:44.116Z,3.00
2023-03-05T15:26:13.856Z,2.50
2023-03-05T15:28:40.914Z,3.10
2023-03-05T15:31:08.278Z,3.10
2023-03-05T15:33:35.200Z,3.03
2023-03-05T15:36:01.781Z,3.00
2023-03-05T15:38:28.330Z,3.50
2023-03-05T15:40:54.834Z,2.57
2023-03-05T15:43:21.309Z,2.47
2023-03-05T15:45:48.114Z,2.90
2023-03-05T15:48:14.778Z,2.17
2023-03-05T15:50:43.347Z,2.40
2023-03-05T15:53:13.091Z,2.50
2023-03-05T15:55:40.917Z,2.70
2023-03-05T15:58:07.778Z,2.60
2023-03-05T16:00:37.083Z,2.70
2023-03-05T16:03:03.999Z,2.80
2023-03-05T16:05:30.606Z,2.53
2023-03-05T16:07:58.473Z,2.53
2023-03-05T16:10:28.115Z,2.93
2023-03-05T16:13:09.396Z,3.47
2023-03-05T16:15:39.533Z,2.63
2023-03-05T16:18:10.361Z,2.63
2023-03-05T16:20:37.693Z,2.90
2023-03-05T16:23:05.505Z,2.30
2023-03-05T16:25:32.472Z,2.30
2023-03-05T16:27:58.987Z,2.73
2023-03-05T16:30:25.501Z,3.43
2023-03-05T16:32:53.715Z,3.83
2023-03-05T16:35:20.551Z,3.87
2023-03-05T16:37:47.606Z,3.10
2023-03-05T16:40:14.365Z,4.67
2023-03-05T16:42:41.879Z,4.07
2023-03-05T16:45:09.586Z,3.63
2023-03-05T16:47:36.114Z,4.17
2023-03-05T16:50:02.831Z,3.97
2023-03-05T16:52:30.370Z,3.93
2023-03-05T16:54:56.830Z,3.83
2023-03-05T16:57:25.395Z,3.80
2023-03-05T16:59:52.672Z,3.90
2023-03-05T17:02:19.169Z,3.20
2023-03-05T17:04:46.064Z,3.50
2023-03-05T17:07:12.633Z,3.43
2023-03-05T17:09:39.232Z,3.77
2023-03-05T17:12:05.889Z,6.53
2023-03-05T17:14:32.454Z,6.50
2023-03-05T17:16:59.053Z,4.47
2023-03-05T17:19:25.622Z,3.70
2023-03-05T17:21:52.339Z,3.57
2023-03-05T17:24:22.282Z,4.13
2023-03-05T17:26:50.022Z,3.57
2023-03-05T17:29:18.758Z,4.93
2023-03-05T17:31:46.296Z,9.50
2023-03-05T17:34:12.814Z,80.33
2023-03-05T17:36:39.397Z,15.23
2023-03-05T17:39:06.045Z,14.03
2023-03-05T17:41:32.505Z,12.13
2023-03-05T17:43:58.964Z,6.80
2023-03-05T17:46:25.855Z,5.13
2023-03-05T17:48:52.342Z,10.87
2023-03-05T17:51:18.864Z,6.53
2023-03-05T17:53:45.502Z,4.17
2023-03-05T17:56:13.217Z,4.73
2023-03-05T17:58:40.912Z,3.07
2023-03-05T18:01:08.258Z,3.97
2023-03-05T18:03:36.322Z,4.93
2023-03-05T18:06:03.733Z,4.60
2023-03-05T18:08:30.424Z,4.60
2023-03-05T18:10:56.896Z,5.60
2023-03-05T18:13:23.384Z,4.97
2023-03-05T18:15:49.911Z,4.10
2023-03-05T18:18:18.163Z,5.77
2023-03-05T18:20:45.447Z,7.70
2023-03-05T18:23:12.116Z,7.23
2023-03-05T18:25:38.755Z,5.20
2023-03-05T18:28:11.051Z,5.90
2023-03-05T18:30:38.175Z,6.57
2023-03-05T18:33:05.065Z,6.50
2023-03-05T18:35:33.391Z,6.23
2023-03-05T18:38:00.412Z,6.20
2023-03-05T18:40:29.504Z,5.80
2023-03-05T18:42:55.984Z,4.10
2023-03-05T18:45:23.163Z,8.80
2023-03-05T18:47:53.945Z,4.50
2023-03-05T18:50:21.717Z,4.63
2023-03-05T18:52:48.245Z,4.70
2023-03-05T18:55:17.532Z,5.60
2023-03-05T18:57:44.108Z,4.27
2023-03-05T19:00:27.035Z,3.63
2023-03-05T19:02:54.157Z,3.60
2023-03-05T19:05:21.368Z,4.20
2023-03-05T19:07:48.245Z,13.57
2023-03-05T19:10:16.212Z,10.60
2023-03-05T19:12:49.642Z,6.30
2023-03-05T19:15:16.810Z,7.37
2023-03-05T19:17:43.346Z,8.77
2023-03-05T19:20:13.391Z,9.87
2023-03-05T19:22:40.374Z,10.33
2023-03-05T19:25:08.466Z,9.73
2023-03-05T19:27:35.019Z,7.60
2023-03-05T19:30:01.555Z,8.20
2023-03-05T19:32:28.198Z,12.97
2023-03-05T19:34:57.026Z,7.23
2023-03-05T19:37:24.738Z,7.60
2023-03-05T19:39:51.678Z,7.57
2023-03-05T19:42:18.368Z,6.70
2023-03-05T19:44:44.857Z,7.00
2023-03-05T19:47:11.367Z,7.23
2023-03-05T19:49:37.946Z,7.10
2023-03-05T19:52:06.130Z,6.70
2023-03-05T19:54:32.981Z,6.73
2023-03-05T19:57:00.036Z,6.57
2023-03-05T19:59:26.693Z,6.57
2023-03-05T20:01:53.641Z,7.17
2023-03-05T20:04:23.155Z,6.97
2023-03-05T20:06:49.902Z,6.13
2023-03-05T20:09:16.534Z,6.33
2023-03-05T20:11:43.579Z,6.60
2023-03-05T20:14:10.303Z,7.17
2023-03-05T20:16:40.595Z,7.77
2023-03-05T20:19:08.111Z,7.77
2023-03-05T20:21:38.504Z,8.03
2023-03-05T20:24:09.806Z,7.93
2023-03-05T20:26:38.220Z,8.50
2023-03-05T20:29:05.360Z,9.13
2023-03-05T20:31:36.653Z,9.17
2023-03-05T20:34:07.939Z,8.43
2023-03-05T20:36:37.281Z,8.30
2023-03-05T20:39:05.581Z,8.50
2023-03-05T20:41:34.137Z,7.80
2023-03-05T20:44:00.947Z,7.67
2023-03-05T20:46:29.995Z,7.30
2023-03-05T20:48:59.113Z,7.73
2023-03-05T20:51:27.381Z,7.80
2023-03-05T20:53:58.095Z,7.87
2023-03-05T20:56:26.227Z,8.03
2023-03-05T20:58:52.682Z,9.03
2023-03-05T21:01:19.217Z,7.83
2023-03-05T21:03:45.674Z,7.20
2023-03-05T21:06:12.268Z,8.17
2023-03-05T21:08:38.893Z,7.70
2023-03-05T21:11:09.565Z,12.40
2023-03-05T21:13:36.628Z,13.20
2023-03-05T21:16:08.414Z,10.57
2023-03-05T21:18:35.594Z,10.80
2023-03-05T21:21:02.439Z,9.50
2023-03-05T21:23:28.956Z,9.93
2023-03-05T21:25:55.460Z,16.80
2023-03-05T21:28:22.040Z,17.50
2023-03-05T21:30:51.925Z,17.47
2023-03-05T21:33:23.244Z,13.77
2023-03-05T21:35:52.628Z,12.40
2023-03-05T21:38:22.978Z,11.83
2023-03-05T21:40:50.323Z,9.03
2023-03-05T21:43:19.325Z,8.23
2023-03-05T21:45:47.197Z,8.30
2023-03-05T21:48:14.325Z,8.03
2023-03-05T21:50:43.718Z,7.77
2023-03-05T21:53:12.052Z,7.13
2023-03-05T21:55:55.071Z,7.50
2023-03-05T21:58:21.526Z,6.97
2023-03-05T22:00:47.992Z,8.70
2023-03-05T22:03:14.494Z,8.30
2023-03-05T22:05:43.349Z,7.43
2023-03-05T22:08:09.885Z,7.80
2023-03-05T22:10:36.464Z,8.47
2023-03-05T22:13:09.937Z,8.83
2023-03-05T22:15:56.927Z,10.10
2023-03-05T22:18:26.442Z,14.20
2023-03-05T22:20:53.585Z,12.33
2023-03-05T22:23:22.723Z,10.20
2023-03-05T22:26:05.250Z,8.97
2023-03-05T22:28:32.933Z,8.60
2023-03-05T22:30:59.455Z,8.40
2023-03-05T22:33:27.009Z,8.37
2023-03-05T22:35:54.101Z,8.13
2023-03-05T22:38:21.201Z,8.67
2023-03-05T22:40:49.237Z,8.90
2023-03-05T22:43:16.824Z,8.90
2023-03-05T22:45:43.379Z,8.47
2023-03-05T22:48:10.811Z,8.30
2023-03-05T22:50:41.902Z,8.77
2023-03-05T22:53:08.490Z,7.97
2023-03-05T22:55:38.962Z,8.17
2023-03-05T22:58:05.447Z,7.77
2023-03-05T23:00:31.944Z,8.23
2023-03-05T23:02:58.413Z,7.57
2023-03-05T23:05:24.902Z,7.87
2023-03-05T23:07:51.420Z,10.33
2023-03-05T23:10:26.331Z,8.60
2023-03-05T23:12:54.475Z,9.73
2023-03-05T23:15:23.950Z,10.30
2023-03-05T23:17:50.597Z,10.60
2023-03-05T23:20:20.827Z,15.50
2023-03-05T23:22:47.679Z,12.93
2023-03-05T23:25:15.889Z,11.27
2023-03-05T23:27:42.685Z,8.40
2023-03-05T23:30:17.024Z,8.30
2023-03-05T23:32:50.061Z,7.10
2023-03-05T23:35:29.091Z,7.60
2023-03-05T23:37:57.613Z,7.47
2023-03-05T23:40:40.357Z,7.20
2023-03-05T23:43:06.817Z,7.17
2023-03-05T23:45:33.748Z,6.97
2023-03-05T23:48:00.581Z,7.63
2023-03-05T23:50:32.978Z,7.30
2023-03-05T23:53:01.961Z,7.27
2023-03-05T23:55:32.478Z,8.30
2023-03-05T23:57:59.107Z,6.97
